createdAt,value
2019-03-23T00:03:58.040Z,102187.83
2019-03-23T00:06:30.682Z,102190.50
2019-03-23T00:08:54.738Z,102184.33
2019-03-23T00:11:22.122Z,102188.74
2019-03-23T00:13:49.774Z,102181.30
2019-03-23T00:16:17.046Z,102174.77
2019-03-23T00:18:44.467Z,102173.59
2019-03-23T00:21:11.731Z,102171.89
2019-03-23T00:23:39.126Z,102171.30
2019-03-23T00:26:06.544Z,102171.13
2019-03-23T00:28:34.092Z,102172.77
2019-03-23T00:31:01.447Z,102172.09
2019-03-23T00:33:28.867Z,102169.55
2019-03-23T00:36:15.476Z,102166.24
2019-03-23T00:38:43.228Z,102159.14
2019-03-23T00:41:31.970Z,102160.73
2019-03-23T00:43:59.291Z,102150.14
2019-03-23T00:46:26.677Z,102152.09
2019-03-23T00:48:53.941Z,102147.36
2019-03-23T00:51:21.651Z,102145.59
2019-03-23T00:53:49.039Z,102139.49
2019-03-23T00:56:16.679Z,102134.09
2019-03-23T00:58:44.368Z,102138.33
2019-03-23T01:01:11.827Z,102123.39
2019-03-23T01:03:39.082Z,102119.34
2019-03-23T01:06:06.412Z,102120.64
2019-03-23T01:11:22.581Z,102117.69
2019-03-23T01:13:49.842Z,102116.08
2019-03-23T01:16:17.153Z,102117.69
2019-03-23T01:18:44.534Z,102111.94
2019-03-23T01:21:11.903Z,102102.69
2019-03-23T01:23:39.267Z,102099.35
2019-03-23T01:26:06.976Z,102102.03
2019-03-23T01:28:34.362Z,102091.91
2019-03-23T01:31:02.207Z,102089.64
2019-03-23T01:33:29.826Z,102092.70
2019-03-23T01:35:57.078Z,102090.48
2019-03-23T01:38:24.338Z,102089.14
2019-03-23T01:40:51.561Z,102087.75
2019-03-23T01:43:18.813Z,102082.92
2019-03-23T01:45:46.185Z,102079.86
2019-03-23T01:48:13.607Z,102086.28
2019-03-23T01:50:40.988Z,102076.12
2019-03-23T01:53:08.260Z,102071.28
2019-03-23T01:55:36.195Z,102069.40
2019-03-23T01:58:03.566Z,102068.85
2019-03-23T02:00:31.171Z,102066.41
2019-03-23T02:02:58.490Z,102070.53
2019-03-23T02:05:26.462Z,102070.53
2019-03-23T02:07:53.720Z,102072.95
2019-03-23T02:10:21.207Z,102061.54
2019-03-23T02:12:48.471Z,102061.23
2019-03-23T02:15:15.841Z,102067.44
2019-03-23T02:17:43.206Z,102061.84
2019-03-23T02:20:10.979Z,102051.16
2019-03-23T02:22:38.757Z,102058.44
2019-03-23T02:25:06.626Z,102059.81
2019-03-23T02:27:34.126Z,102057.59
2019-03-23T02:30:01.385Z,102048.24
2019-03-23T02:32:28.790Z,102055.65
2019-03-23T02:34:56.052Z,102051.77
2019-03-23T02:37:28.088Z,102047.68
2019-03-23T02:39:52.811Z,102046.31
2019-03-23T02:42:20.067Z,102042.88
2019-03-23T02:44:47.429Z,102043.23
2019-03-23T02:47:14.735Z,102047.19
2019-03-23T02:49:42.351Z,102046.23
2019-03-23T02:52:09.634Z,102048.39
2019-03-23T02:54:37.043Z,102049.38
2019-03-23T02:57:04.317Z,102050.89
2019-03-23T02:59:31.676Z,102052.19
2019-03-23T03:01:59.334Z,102058.47
2019-03-23T03:04:26.597Z,102055.30
2019-03-23T03:06:54.072Z,102061.78
2019-03-23T03:09:21.760Z,102057.98
2019-03-23T03:11:49.008Z,102052.76
2019-03-23T03:14:16.380Z,102049.34
2019-03-23T03:16:43.791Z,102053.25
2019-03-23T03:19:11.435Z,102055.16
2019-03-23T03:21:38.854Z,102058.08
2019-03-23T03:24:06.552Z,102056.25
2019-03-23T03:26:33.817Z,102050.67
2019-03-23T03:29:01.392Z,102049.59
2019-03-23T03:31:28.743Z,102052.02
2019-03-23T03:33:56.047Z,102054.42
2019-03-23T03:36:23.651Z,102054.20
2019-03-23T03:38:51.275Z,102050.86
2019-03-23T03:41:18.538Z,102056.32
2019-03-23T03:43:45.796Z,102046.41
2019-03-23T03:46:13.112Z,102045.78
2019-03-23T03:48:40.372Z,102038.80
2019-03-23T03:51:07.624Z,102040.20
2019-03-23T03:53:35.129Z,102040.63
2019-03-23T03:56:02.546Z,102041.47
2019-03-23T03:58:30.768Z,102037.63
2019-03-23T04:00:58.591Z,102035.02
2019-03-23T04:03:38.262Z,102028.72
2019-03-23T04:06:05.596Z,102033.51
2019-03-23T04:08:32.859Z,102028.43
2019-03-23T04:11:00.347Z,102028.89
2019-03-23T04:13:27.829Z,102026.53
2019-03-23T04:15:55.210Z,102027.38
2019-03-23T04:18:22.465Z,102025.64
2019-03-23T04:20:49.893Z,102017.99
2019-03-23T04:23:17.174Z,102013.34
2019-03-23T04:25:44.435Z,102015.95
2019-03-23T04:28:11.756Z,102015.98
2019-03-23T04:30:39.299Z,102019.90
2019-03-23T04:33:06.651Z,102023.00
2019-03-23T04:35:34.205Z,102026.77
2019-03-23T04:38:01.801Z,102025.56
2019-03-23T04:40:29.057Z,102022.45
2019-03-23T04:42:56.421Z,102021.23
2019-03-23T04:45:30.700Z,102025.75
2019-03-23T04:47:57.955Z,102021.05
2019-03-23T04:50:25.263Z,102015.79
2019-03-23T04:52:52.539Z,102028.33
2019-03-23T04:55:19.797Z,102023.92
2019-03-23T04:57:47.128Z,102021.31
2019-03-23T05:00:14.642Z,102012.08
2019-03-23T05:02:41.892Z,102012.23
2019-03-23T05:05:09.262Z,102006.47
2019-03-23T05:07:36.527Z,102014.98
2019-03-23T05:10:04.284Z,102019.31
2019-03-23T05:12:31.663Z,102013.98
2019-03-23T05:14:59.140Z,102009.87
2019-03-23T05:17:26.514Z,102005.29
2019-03-23T05:19:53.930Z,102003.10
2019-03-23T05:22:21.234Z,101994.88
2019-03-23T05:24:48.781Z,101993.28
2019-03-23T05:27:16.186Z,101996.56
2019-03-23T05:29:44.011Z,101994.92
2019-03-23T05:32:11.263Z,101996.77
2019-03-23T05:34:38.596Z,101996.19
2019-03-23T05:37:05.851Z,101993.59
2019-03-23T05:39:33.313Z,101994.68
2019-03-23T05:42:00.648Z,101980.40
2019-03-23T05:44:27.907Z,101985.34
2019-03-23T05:46:55.169Z,101982.73
2019-03-23T05:49:22.490Z,101991.68
2019-03-23T05:51:50.070Z,101991.63
2019-03-23T05:54:17.324Z,101990.76
2019-03-23T05:56:44.638Z,101992.95
2019-03-23T05:59:11.886Z,101999.19
2019-03-23T06:01:39.143Z,102000.73
2019-03-23T06:04:06.454Z,102002.22
2019-03-23T06:06:33.762Z,102000.11
2019-03-23T06:09:01.367Z,102003.67
2019-03-23T06:11:28.922Z,102000.93
2019-03-23T06:13:56.483Z,101999.13
2019-03-23T06:16:23.736Z,101999.66
2019-03-23T06:18:51.174Z,101997.61
2019-03-23T06:21:18.488Z,102000.69
2019-03-23T06:23:45.907Z,102006.08
2019-03-23T06:26:13.241Z,102000.02
2019-03-23T06:28:40.608Z,101995.00
2019-03-23T06:31:07.960Z,101992.91
2019-03-23T06:33:35.781Z,102002.80
2019-03-23T06:36:03.115Z,101999.79
2019-03-23T06:38:30.834Z,101998.73
2019-03-23T06:40:58.146Z,101999.49
2019-03-23T06:43:25.405Z,101996.94
2019-03-23T06:45:52.576Z,101994.58
2019-03-23T06:48:20.043Z,101995.54
2019-03-23T06:50:47.311Z,101992.68
2019-03-23T06:53:14.971Z,101990.34
2019-03-23T06:55:42.572Z,101997.53
2019-03-23T06:58:09.836Z,101999.78
2019-03-23T07:00:37.541Z,102008.73
2019-03-23T07:03:05.308Z,102000.66
2019-03-23T07:05:32.572Z,102000.40
2019-03-23T07:07:59.878Z,102005.32
2019-03-23T07:10:27.318Z,102005.52
2019-03-23T07:12:54.964Z,101998.69
2019-03-23T07:15:22.874Z,101996.23
2019-03-23T07:17:50.475Z,101996.79
2019-03-23T07:20:17.840Z,101998.69
2019-03-23T07:22:45.108Z,101994.00
2019-03-23T07:25:12.610Z,101987.94
2019-03-23T07:27:39.863Z,101990.17
2019-03-23T07:30:09.279Z,101997.27
2019-03-23T07:32:36.698Z,101992.49
2019-03-23T07:35:04.818Z,101991.17
2019-03-23T07:37:32.088Z,101998.20
2019-03-23T07:39:59.515Z,101998.66
2019-03-23T07:42:26.765Z,102006.11
2019-03-23T07:44:54.025Z,102008.76
2019-03-23T07:47:21.354Z,102010.93
2019-03-23T07:49:48.624Z,102006.59
2019-03-23T07:52:15.887Z,102011.41
2019-03-23T07:54:43.512Z,102017.52
2019-03-23T07:57:10.766Z,102017.95
2019-03-23T07:59:38.024Z,102022.78
2019-03-23T08:02:05.648Z,102009.19
2019-03-23T08:04:32.916Z,102013.55
2019-03-23T08:07:00.175Z,102016.58
2019-03-23T08:09:37.341Z,102016.95
2019-03-23T08:11:57.757Z,102017.40
2019-03-23T08:14:25.007Z,102022.19
2019-03-23T08:16:52.317Z,102022.16
2019-03-23T08:19:19.573Z,102020.36
2019-03-23T08:21:47.108Z,102014.13
2019-03-23T08:24:14.511Z,102019.28
2019-03-23T08:26:41.763Z,102013.89
2019-03-23T08:29:09.018Z,102008.97
2019-03-23T08:31:36.349Z,102011.03
2019-03-23T08:34:03.833Z,102015.70
2019-03-23T08:36:31.156Z,102018.59
2019-03-23T08:38:59.131Z,102015.84
2019-03-23T08:41:26.386Z,102012.08
2019-03-23T08:43:53.637Z,102007.46
2019-03-23T08:46:20.944Z,102008.67
2019-03-23T08:48:48.808Z,102006.59
2019-03-23T08:51:16.190Z,102011.59
2019-03-23T08:53:43.742Z,102016.20
2019-03-23T08:56:11.108Z,102008.55
2019-03-23T08:58:37.010Z,102006.00
2019-03-23T09:01:04.327Z,102000.16
2019-03-23T09:03:31.594Z,102004.70
2019-03-23T09:05:58.850Z,102001.34
2019-03-23T09:08:26.218Z,102005.23
2019-03-23T09:10:53.632Z,101996.10
2019-03-23T09:13:20.995Z,102001.27
2019-03-23T09:15:48.332Z,102006.97
2019-03-23T09:18:15.602Z,101994.97
2019-03-23T09:20:43.276Z,101995.38
2019-03-23T09:23:10.500Z,101993.39
2019-03-23T09:25:38.089Z,101993.55
2019-03-23T09:28:05.350Z,101998.98
2019-03-23T09:30:32.650Z,102000.75
2019-03-23T09:32:59.910Z,102003.84
2019-03-23T09:35:27.556Z,102005.55
2019-03-23T09:37:54.993Z,102009.11
2019-03-23T09:40:22.624Z,102008.89
2019-03-23T09:42:50.262Z,102009.20
2019-03-23T09:45:17.586Z,102006.33
2019-03-23T09:47:45.273Z,102020.46
2019-03-23T09:50:12.959Z,102016.03
2019-03-23T09:52:40.264Z,102018.38
2019-03-23T09:55:07.519Z,102013.84
2019-03-23T09:57:34.786Z,102021.45
2019-03-23T10:00:02.106Z,102022.57
2019-03-23T10:02:29.384Z,102030.97
2019-03-23T10:04:56.846Z,102023.68
2019-03-23T10:07:24.543Z,102031.68
2019-03-23T10:09:51.811Z,102028.10
2019-03-23T10:12:19.151Z,102017.23
2019-03-23T10:14:46.451Z,102019.68
2019-03-23T10:17:13.705Z,102016.98
2019-03-23T10:19:41.257Z,102020.41
2019-03-23T10:22:08.840Z,102019.97
2019-03-23T10:24:36.197Z,102018.31
2019-03-23T10:27:03.641Z,102015.93
2019-03-23T10:29:30.931Z,102019.28
2019-03-23T10:31:58.250Z,102028.11
2019-03-23T10:34:25.880Z,102028.41
2019-03-23T10:36:53.203Z,102023.62
2019-03-23T10:39:20.457Z,102032.56
2019-03-23T10:41:48.389Z,102029.10
2019-03-23T10:44:15.989Z,102016.75
2019-03-23T10:46:43.643Z,102014.34
2019-03-23T10:49:11.021Z,102020.00
2019-03-23T10:51:38.963Z,102021.05
2019-03-23T10:54:06.211Z,102020.00
2019-03-23T10:56:34.035Z,102020.02
2019-03-23T10:59:01.503Z,102015.30
2019-03-23T11:01:28.766Z,102013.66
2019-03-23T11:03:56.015Z,102008.58
2019-03-23T11:06:23.322Z,102018.74
2019-03-23T11:08:50.798Z,102007.36
2019-03-23T11:11:18.047Z,102019.27
2019-03-23T11:13:45.533Z,102016.91
2019-03-23T11:16:12.796Z,102018.25
2019-03-23T11:18:40.337Z,102015.52
2019-03-23T11:21:07.652Z,102015.00
2019-03-23T11:23:35.299Z,102016.56
2019-03-23T11:26:02.610Z,102008.32
2019-03-23T11:28:29.877Z,102012.16
2019-03-23T11:30:57.373Z,102016.86
2019-03-23T11:33:24.594Z,102017.34
2019-03-23T11:35:57.709Z,102014.06
2019-03-23T11:38:21.658Z,102021.22
2019-03-23T11:40:54.071Z,102013.52
2019-03-23T11:43:18.233Z,102025.78
2019-03-23T11:45:45.507Z,102016.36
2019-03-23T11:48:13.095Z,102016.63
2019-03-23T11:50:40.886Z,102019.55
2019-03-23T11:53:08.139Z,102016.06
2019-03-23T11:55:35.697Z,102021.02
2019-03-23T11:58:03.115Z,102016.44
2019-03-23T12:00:30.647Z,102016.53
2019-03-23T12:02:57.907Z,102017.16
2019-03-23T12:05:25.606Z,102019.19
2019-03-23T12:07:52.862Z,102020.17
2019-03-23T12:10:20.223Z,102031.11
2019-03-23T12:12:47.675Z,102029.80
2019-03-23T12:15:15.388Z,102026.25
2019-03-23T12:17:42.653Z,102025.66
2019-03-23T12:20:50.784Z,102028.95
2019-03-23T12:23:18.043Z,102036.87
2019-03-23T12:25:45.294Z,102029.09
2019-03-23T12:28:12.902Z,102027.78
2019-03-23T12:30:40.442Z,102039.34
2019-03-23T12:33:07.739Z,102044.56
2019-03-23T12:35:35.155Z,102051.97
2019-03-23T12:38:02.504Z,102059.39
2019-03-23T12:40:49.162Z,102064.19
2019-03-23T12:43:16.413Z,102071.88
2019-03-23T12:45:43.769Z,102074.56
2019-03-23T12:48:11.200Z,102076.59
2019-03-23T12:50:38.457Z,102085.28
2019-03-23T12:53:05.826Z,102084.92
2019-03-23T12:55:33.138Z,102095.66
2019-03-23T12:58:00.765Z,102095.72
2019-03-23T13:00:28.317Z,102106.59
2019-03-23T13:02:55.901Z,102105.77
2019-03-23T13:05:23.169Z,102108.50
2019-03-23T13:07:50.817Z,102104.98
2019-03-23T13:10:18.303Z,102116.75
2019-03-23T13:12:45.688Z,102125.63
2019-03-23T13:15:13.075Z,102125.31
2019-03-23T13:17:41.155Z,102129.73
2019-03-23T13:20:08.897Z,102132.17
2019-03-23T13:22:36.212Z,102131.92
2019-03-23T13:25:04.348Z,102133.12
2019-03-23T13:27:31.707Z,102131.86
2019-03-23T13:29:58.971Z,102128.22
2019-03-23T13:32:26.514Z,102121.95
2019-03-23T13:34:53.869Z,102116.09
2019-03-23T13:37:21.179Z,102120.16
2019-03-23T13:39:48.814Z,102126.51
2019-03-23T13:42:16.437Z,102136.95
2019-03-23T13:44:43.909Z,102124.38
2019-03-23T13:47:11.218Z,102125.55
2019-03-23T13:49:38.479Z,102131.33
2019-03-23T13:52:06.060Z,102130.66
2019-03-23T13:54:33.650Z,102136.41
2019-03-23T13:57:01.312Z,102134.20
2019-03-23T13:59:28.889Z,102142.65
2019-03-23T14:01:56.205Z,102135.77
2019-03-23T14:04:23.458Z,102140.33
2019-03-23T14:06:50.815Z,102145.84
2019-03-23T14:09:18.604Z,102146.40
2019-03-23T14:11:54.718Z,102142.88
2019-03-23T14:14:15.963Z,102149.36
2019-03-23T14:16:43.266Z,102142.86
2019-03-23T14:19:10.708Z,102145.17
2019-03-23T14:21:38.070Z,102159.52
2019-03-23T14:24:05.502Z,102166.48
2019-03-23T14:26:33.036Z,102157.23
2019-03-23T14:29:00.307Z,102158.45
2019-03-23T14:31:27.932Z,102155.75
2019-03-23T14:33:55.186Z,102148.84
2019-03-23T14:36:22.363Z,102154.14
2019-03-23T14:38:49.705Z,102154.92
2019-03-23T14:41:17.250Z,102158.34
2019-03-23T14:43:44.627Z,102165.28
2019-03-23T14:46:12.111Z,102173.65
2019-03-23T14:48:39.711Z,102170.11
2019-03-23T14:51:06.957Z,102175.63
2019-03-23T14:53:34.264Z,102173.81
2019-03-23T14:56:01.621Z,102177.66
2019-03-23T14:58:29.093Z,102175.27
2019-03-23T15:00:56.406Z,102178.79
2019-03-23T15:03:23.669Z,102179.27
2019-03-23T15:05:50.949Z,102176.34
2019-03-23T15:08:18.255Z,102173.75
2019-03-23T15:10:46.306Z,102173.83
2019-03-23T15:13:13.583Z,102175.08
2019-03-23T15:15:41.079Z,102181.11
2019-03-23T15:18:08.354Z,102181.22
2019-03-23T15:20:35.787Z,102181.58
2019-03-23T15:23:03.133Z,102185.12
2019-03-23T15:25:30.523Z,102190.73
2019-03-23T15:27:58.610Z,102191.06
2019-03-23T15:30:25.952Z,102188.59
2019-03-23T15:32:53.329Z,102190.19
2019-03-23T15:35:20.725Z,102190.91
2019-03-23T15:37:48.168Z,102184.84
2019-03-23T15:40:15.552Z,102180.88
2019-03-23T15:42:42.838Z,102183.34
2019-03-23T15:45:10.339Z,102187.73
2019-03-23T15:47:37.618Z,102183.76
2019-03-23T15:50:05.064Z,102184.19
2019-03-23T15:52:32.633Z,102178.17
2019-03-23T15:54:59.913Z,102175.61
2019-03-23T15:57:27.568Z,102184.73
2019-03-23T15:59:55.008Z,102184.62
2019-03-23T16:02:22.659Z,102187.38
2019-03-23T16:04:49.950Z,102190.39
2019-03-23T16:07:17.419Z,102188.45
2019-03-23T16:09:44.705Z,102191.56
2019-03-23T16:12:12.215Z,102185.54
2019-03-23T16:14:39.718Z,102183.69
2019-03-23T16:17:07.137Z,102179.31
2019-03-23T16:19:34.412Z,102180.28
2019-03-23T16:22:01.809Z,102176.37
2019-03-23T16:24:29.216Z,102180.70
2019-03-23T16:26:56.475Z,102177.63
2019-03-23T16:29:23.796Z,102174.18
2019-03-23T16:31:51.452Z,102175.53
2019-03-23T16:34:18.711Z,102180.79
2019-03-23T16:36:46.261Z,102186.52
2019-03-23T16:39:13.814Z,102184.86
2019-03-23T16:41:41.073Z,102185.34
2019-03-23T16:44:08.532Z,102183.09
2019-03-23T16:46:36.069Z,102184.62
2019-03-23T16:49:03.332Z,102185.97
2019-03-23T16:51:30.657Z,102192.11
2019-03-23T16:53:58.075Z,102187.27
2019-03-23T16:56:25.303Z,102189.12
2019-03-23T16:58:52.750Z,102192.25
2019-03-23T17:01:20.210Z,102195.47
2019-03-23T17:03:47.555Z,102192.39
2019-03-23T17:06:15.145Z,102195.52
2019-03-23T17:08:42.412Z,102189.42
2019-03-23T17:11:10.138Z,102190.36
2019-03-23T17:13:37.594Z,102187.28
2019-03-23T17:16:04.946Z,102201.34
2019-03-23T17:18:32.292Z,102200.08
2019-03-23T17:20:59.967Z,102199.24
2019-03-23T17:23:27.276Z,102200.91
2019-03-23T17:25:54.540Z,102207.55
2019-03-23T17:28:21.851Z,102209.75
2019-03-23T17:30:49.153Z,102216.81
2019-03-23T17:33:16.400Z,102215.89
2019-03-23T17:35:44.124Z,102224.69
2019-03-23T17:38:11.928Z,102218.98
2019-03-23T17:40:39.456Z,102228.16
2019-03-23T17:43:06.769Z,102229.48
2019-03-23T17:45:34.077Z,102226.41
2019-03-23T17:48:01.323Z,102232.52
2019-03-23T17:50:28.626Z,102232.06
2019-03-23T17:52:55.882Z,102235.16
2019-03-23T17:55:23.134Z,102233.84
2019-03-23T17:57:50.456Z,102242.14
2019-03-23T18:00:17.730Z,102243.91
2019-03-23T18:02:45.269Z,102242.53
2019-03-23T18:05:12.580Z,102249.17
2019-03-23T18:07:39.836Z,102243.45
2019-03-23T18:10:48.001Z,102247.84
2019-03-23T18:13:16.866Z,102247.84
2019-03-23T18:15:44.698Z,102247.02
2019-03-23T18:18:12.414Z,102247.02
2019-03-23T18:20:39.673Z,102243.89
2019-03-23T18:23:06.962Z,102251.85
2019-03-23T18:25:34.614Z,102243.95
2019-03-23T18:28:01.869Z,102251.81
2019-03-23T18:30:48.437Z,102254.02
2019-03-23T18:33:15.700Z,102255.38
2019-03-23T18:35:43.466Z,102264.61
2019-03-23T18:38:10.876Z,102261.13
2019-03-23T18:40:38.475Z,102266.81
2019-03-23T18:43:06.424Z,102261.97
2019-03-23T18:45:34.208Z,102263.28
2019-03-23T18:48:01.573Z,102269.05
2019-03-23T18:50:29.153Z,102271.64
2019-03-23T18:52:56.462Z,102276.95
2019-03-23T18:55:24.113Z,102282.63
2019-03-23T18:57:51.503Z,102278.67
2019-03-23T19:00:44.699Z,102282.19
2019-03-23T19:03:12.366Z,102288.83
2019-03-23T19:05:39.627Z,102288.79
2019-03-23T19:08:06.947Z,102287.95
2019-03-23T19:10:34.272Z,102299.81
2019-03-23T19:13:01.904Z,102289.27
2019-03-23T19:15:29.218Z,102296.73
2019-03-23T19:17:56.479Z,102296.77
2019-03-23T19:20:23.727Z,102295.89
2019-03-23T19:22:51.043Z,102291.09
2019-03-23T19:25:18.678Z,102300.32
2019-03-23T19:27:49.246Z,102300.32
2019-03-23T19:33:12.286Z,102298.13
2019-03-23T19:35:39.536Z,102299.88
2019-03-23T19:38:07.106Z,102298.12
2019-03-23T19:40:34.783Z,102299.44
2019-03-23T19:43:02.135Z,102299.41
2019-03-23T19:45:29.685Z,102307.34
2019-03-23T19:47:57.111Z,102310.42
2019-03-23T19:50:24.370Z,102308.66
2019-03-23T19:52:51.947Z,102317.45
2019-03-23T19:55:19.532Z,102320.11
2019-03-23T19:57:46.790Z,102314.84
2019-03-23T20:00:14.832Z,102313.08
2019-03-23T20:02:42.447Z,102307.80
2019-03-23T20:05:10.243Z,102327.56
2019-03-23T20:07:37.654Z,102320.98
2019-03-23T20:10:05.597Z,102320.98
2019-03-23T20:12:33.137Z,102320.98
2019-03-23T20:15:00.454Z,102326.70
2019-03-23T20:17:27.822Z,102324.94
2019-03-23T20:19:55.182Z,102322.31
2019-03-23T20:22:22.710Z,102327.61
2019-03-23T20:24:50.253Z,102328.48
2019-03-23T20:27:17.788Z,102332.42
2019-03-23T20:29:56.851Z,102332.86
2019-03-23T20:32:24.214Z,102331.55
2019-03-23T20:34:51.524Z,102336.84
2019-03-23T20:37:19.120Z,102331.13
2019-03-23T20:39:46.476Z,102331.13
2019-03-23T20:42:13.886Z,102330.22
2019-03-23T20:44:41.204Z,102341.67
2019-03-23T20:47:08.932Z,102334.63
2019-03-23T20:49:36.190Z,102336.83
2019-03-23T20:52:03.510Z,102334.20
2019-03-23T20:54:31.259Z,102335.08
2019-03-23T20:56:58.510Z,102341.22
2019-03-23T20:59:26.459Z,102341.22
2019-03-23T21:01:54.043Z,102339.48
2019-03-23T21:04:21.579Z,102340.80
2019-03-23T21:06:48.891Z,102337.28
2019-03-23T21:09:16.147Z,102340.34
2019-03-23T21:11:43.406Z,102343.41
2019-03-23T21:14:19.889Z,102339.04
2019-03-23T21:16:39.868Z,102338.16
2019-03-23T21:19:07.440Z,102339.48
2019-03-23T21:21:34.946Z,102339.47
2019-03-23T21:24:02.577Z,102343.41
2019-03-23T21:26:29.843Z,102335.95
2019-03-23T21:28:57.254Z,102336.39
2019-03-23T21:31:24.573Z,102338.16
2019-03-23T21:33:51.960Z,102338.59
2019-03-23T21:36:19.280Z,102340.78
2019-03-23T21:38:46.626Z,102335.52
2019-03-23T21:41:14.228Z,102336.40
2019-03-23T21:43:41.534Z,102346.92
2019-03-23T21:46:08.792Z,102342.52
2019-03-23T21:48:36.316Z,102345.61
2019-03-23T21:51:03.753Z,102347.34
2019-03-23T21:53:31.055Z,102342.46
2019-03-23T21:55:58.690Z,102339.80
2019-03-23T21:58:26.563Z,102336.30
2019-03-23T22:00:53.817Z,102345.52
2019-03-23T22:03:21.350Z,102340.21
2019-03-23T22:05:48.667Z,102338.84
2019-03-23T22:08:15.924Z,102344.94
2019-03-23T22:10:43.181Z,102347.94
2019-03-23T22:13:10.512Z,102346.58
2019-03-23T22:15:38.455Z,102353.64
2019-03-23T22:18:05.822Z,102344.00
2019-03-23T22:20:33.271Z,102348.31
2019-03-23T22:23:00.889Z,102341.73
2019-03-23T22:25:47.557Z,102338.55
2019-03-23T22:28:15.200Z,102332.91
2019-03-23T22:30:43.007Z,102335.03
2019-03-23T22:33:10.532Z,102333.65
2019-03-23T22:35:38.069Z,102341.05
2019-03-23T22:38:05.336Z,102338.42
2019-03-23T22:40:32.912Z,102336.70
2019-03-23T22:43:00.399Z,102336.19
2019-03-23T22:45:27.962Z,102336.55
2019-03-23T22:47:55.621Z,102335.50
2019-03-23T22:50:23.164Z,102326.73
2019-03-23T22:52:50.427Z,102326.27
2019-03-23T22:55:17.731Z,102331.89
2019-03-23T22:57:45.094Z,102334.61
2019-03-23T23:00:53.476Z,102339.70
2019-03-23T23:03:20.834Z,102335.30
2019-03-23T23:05:48.240Z,102340.59
2019-03-23T23:08:15.861Z,102341.47
2019-03-23T23:10:43.730Z,102333.33
2019-03-23T23:13:10.997Z,102328.94
2019-03-23T23:15:38.443Z,102327.19
2019-03-23T23:18:05.830Z,102326.27
2019-03-23T23:20:33.377Z,102333.73
2019-03-23T23:23:00.791Z,102329.83
2019-03-23T23:25:28.047Z,102328.09
2019-03-23T23:27:55.306Z,102324.42
2019-03-23T23:30:22.672Z,102320.86
2019-03-23T23:32:50.739Z,102326.10
2019-03-23T23:35:18.048Z,102325.59
2019-03-23T23:37:45.470Z,102330.38
2019-03-23T23:40:12.742Z,102337.81
2019-03-23T23:42:40.022Z,102328.17
2019-03-23T23:45:48.235Z,102335.11
2019-03-23T23:48:15.500Z,102332.10
2019-03-23T23:50:43.003Z,102342.97
2019-03-23T23:53:10.331Z,102346.44
2019-03-23T23:55:37.691Z,102345.52
2019-03-23T23:58:05.113Z,102345.48
